Time;durP1;ratioP1;P1;durP2;ratioP2;P2;SDS_P1;SDS_P2;PMS_P1;PMS_P2;Temp;Humidity;BMP_temperature;BMP_pressure;BME280_temperature;BME280_humidity;BME280_pressure;Samples;Min_cycle;Max_cycle;Signal;HPM_P1;HPM_P2
2021/09/05 00:00:45;;;;;;;10.90;9.77;;;22.70;60.70;;;;;;3127733;28;20045;-88
2021/09/05 00:02:17;;;;;;;11.43;10.25;;;22.70;60.70;;;;;;3134227;28;20037;-89
2021/09/05 00:03:48;;;;;;;11.20;9.98;;;22.80;60.70;;;;;;3134619;28;20049;-88
2021/09/05 00:05:19;;;;;;;11.20;10.10;;;22.70;60.70;;;;;;3133947;28;20412;-89
2021/09/05 00:06:51;;;;;;;11.13;10.02;;;22.70;60.70;;;;;;3134330;28;20178;-87
2021/09/05 00:08:23;;;;;;;10.68;9.68;;;22.70;60.70;;;;;;3134368;28;20041;-88
2021/09/05 00:09:55;;;;;;;11.35;10.23;;;22.70;60.70;;;;;;3133970;28;20417;-89
2021/09/05 00:11:26;;;;;;;11.43;10.23;;;22.70;60.70;;;;;;3134134;28;20063;-89
2021/09/05 00:12:58;;;;;;;10.77;9.68;;;22.70;60.70;;;;;;3134550;28;20504;-88
2021/09/05 00:14:30;;;;;;;11.50;10.30;;;22.70;60.70;;;;;;3134330;28;20053;-89
2021/09/05 00:16:02;;;;;;;11.32;10.20;;;22.70;60.70;;;;;;3133017;28;20524;-88
2021/09/05 00:17:33;;;;;;;11.20;10.07;;;22.70;60.70;;;;;;3134023;28;20067;-88
2021/09/05 00:19:05;;;;;;;11.63;10.35;;;22.70;60.80;;;;;;3134267;28;20432;-88
2021/09/05 00:20:37;;;;;;;11.10;10.00;;;22.60;60.70;;;;;;3133769;28;20041;-88
2021/09/05 00:22:08;;;;;;;11.82;10.68;;;22.60;60.70;;;;;;3134058;28;20044;-89
2021/09/05 00:23:42;;;;;;;10.98;9.88;;;22.60;60.70;;;;;;3134325;28;20045;-88
2021/09/05 00:25:13;;;;;;;11.43;10.20;;;22.60;60.70;;;;;;3134040;28;20390;-88
2021/09/05 00:26:47;;;;;;;11.07;9.93;;;22.60;60.70;;;;;;3134272;28;20126;-88
2021/09/05 00:28:18;;;;;;;11.38;10.27;;;22.60;60.70;;;;;;3134047;28;20044;-88
2021/09/05 00:29:50;;;;;;;10.82;9.75;;;22.60;60.70;;;;;;3134172;28;20053;-88
2021/09/05 00:31:22;;;;;;;11.52;10.43;;;22.60;60.70;;;;;;3128382;28;20045;-88
2021/09/05 00:32:53;;;;;;;10.70;9.60;;;22.60;60.70;;;;;;3133835;28;20044;-89
2021/09/05 00:34:25;;;;;;;10.93;9.82;;;22.60;60.70;;;;;;3134285;28;20549;-88
2021/09/05 00:35:57;;;;;;;11.43;9.43;;;22.60;60.70;;;;;;3124917;28;20050;-88
2021/09/05 00:37:28;;;;;;;10.35;9.35;;;22.60;60.70;;;;;;3121437;28;20049;-88
2021/09/05 00:39:04;;;;;;;12.07;10.23;;;22.60;60.70;;;;;;3121682;28;20061;-89
2021/09/05 00:40:35;;;;;;;10.15;9.23;;;22.60;60.70;;;;;;3121330;28;20080;-88
2021/09/05 00:42:07;;;;;;;10.65;9.55;;;22.60;60.70;;;;;;3121689;28;20461;-88
2021/09/05 00:43:55;;;;;;;10.63;9.63;;;22.60;60.70;;;;;;3121797;28;20613;-88
2021/09/05 00:45:27;;;;;;;10.98;9.90;;;22.50;60.60;;;;;;3120342;28;20057;-88
2021/09/05 00:46:59;;;;;;;10.93;9.93;;;22.60;60.70;;;;;;3115023;28;20423;-88
2021/09/05 00:48:31;;;;;;;10.68;9.68;;;22.50;60.70;;;;;;3121227;28;20474;-87
2021/09/05 00:50:02;;;;;;;10.18;9.18;;;22.50;60.70;;;;;;3121210;28;20084;-88
2021/09/05 00:51:35;;;;;;;10.77;9.68;;;22.50;60.70;;;;;;3121554;28;20091;-88
2021/09/05 00:53:06;;;;;;;10.98;9.98;;;22.60;60.80;;;;;;3120845;28;20057;-89
2021/09/05 00:54:42;;;;;;;11.05;10.05;;;22.50;60.70;;;;;;3121905;28;20046;-88
2021/09/05 00:56:14;;;;;;;11.32;10.25;;;22.50;60.70;;;;;;3132157;28;20053;-87
2021/09/05 00:57:46;;;;;;;10.45;9.45;;;22.50;60.70;;;;;;3133963;28;20070;-88
2021/09/05 00:59:20;;;;;;;10.70;9.63;;;22.50;60.80;;;;;;3133178;28;20060;-88
2021/09/05 01:00:50;;;;;;;10.90;9.90;;;22.50;60.80;;;;;;3130999;28;20668;-88
2021/09/05 01:02:22;;;;;;;11.20;10.10;;;22.50;60.70;;;;;;3124239;28;20132;-88
2021/09/05 01:03:54;;;;;;;10.40;9.40;;;22.50;60.70;;;;;;3121461;28;20656;-87
2021/09/05 01:05:26;;;;;;;11.40;9.88;;;22.50;60.80;;;;;;3121167;28;20053;-89
2021/09/05 01:06:57;;;;;;;11.13;10.02;;;22.50;60.80;;;;;;3121719;28;20072;-89
2021/09/05 01:08:28;;;;;;;10.88;9.77;;;22.50;60.80;;;;;;3120872;28;20056;-88
2021/09/05 01:10:01;;;;;;;10.60;9.57;;;22.50;60.70;;;;;;3121225;28;20056;-89
2021/09/05 01:11:33;;;;;;;11.07;9.98;;;22.50;60.70;;;;;;3121431;28;20060;-88
2021/09/05 01:13:04;;;;;;;10.40;9.40;;;22.50;60.80;;;;;;3121847;28;20057;-88
2021/09/05 01:14:35;;;;;;;10.35;9.32;;;22.50;60.80;;;;;;3121397;28;20559;-88
2021/09/05 01:16:07;;;;;;;10.50;9.50;;;22.50;60.80;;;;;;3120164;28;20242;-87
2021/09/05 01:17:39;;;;;;;10.02;9.05;;;22.40;60.70;;;;;;3119648;28;20066;-88
2021/09/05 01:19:12;;;;;;;10.38;9.38;;;22.40;60.70;;;;;;3121280;28;20053;-88
2021/09/05 01:20:44;;;;;;;10.30;9.30;;;22.50;60.70;;;;;;3121016;28;20045;-88
2021/09/05 01:22:16;;;;;;;10.60;9.60;;;22.40;60.70;;;;;;3121122;28;20053;-89
2021/09/05 01:23:48;;;;;;;10.43;9.38;;;22.40;60.70;;;;;;3121839;28;20453;-88
2021/09/05 01:25:21;;;;;;;11.07;10.07;;;22.40;60.80;;;;;;3120922;28;20045;-89
2021/09/05 01:26:52;;;;;;;11.00;9.90;;;22.40;60.80;;;;;;3121931;28;20057;-89
2021/09/05 01:28:25;;;;;;;9.75;8.85;;;22.40;60.80;;;;;;3120641;28;20486;-88
2021/09/05 01:29:56;;;;;;;10.82;9.82;;;22.40;60.80;;;;;;3121016;28;20053;-88
2021/09/05 01:31:35;;;;;;;10.38;9.43;;;22.40;60.80;;;;;;3130450;28;20037;-89
2021/09/05 01:33:07;;;;;;;10.10;9.20;;;22.30;60.80;;;;;;3133505;28;20055;-88
2021/09/05 01:34:39;;;;;;;10.30;9.23;;;22.40;60.80;;;;;;3133945;28;20049;-88
2021/09/05 01:36:10;;;;;;;10.80;9.70;;;22.30;60.70;;;;;;3133285;28;20048;-88
2021/09/05 01:37:42;;;;;;;10.63;9.63;;;22.30;60.70;;;;;;3133857;28;20052;-87
2021/09/05 01:39:13;;;;;;;10.85;9.85;;;22.30;60.70;;;;;;3133538;28;20072;-87
2021/09/05 01:40:45;;;;;;;11.18;10.10;;;22.30;60.80;;;;;;3133084;28;20433;-88
2021/09/05 01:42:17;;;;;;;10.25;9.25;;;22.30;60.80;;;;;;3134026;28;20049;-88
2021/09/05 01:43:49;;;;;;;10.07;8.95;;;22.30;60.80;;;;;;3133508;28;20052;-89
2021/09/05 01:45:20;;;;;;;10.40;9.40;;;22.30;60.80;;;;;;3132150;28;20051;-89
2021/09/05 01:46:52;;;;;;;10.30;9.30;;;22.30;60.70;;;;;;3126543;28;20311;-89
2021/09/05 01:48:24;;;;;;;10.38;9.38;;;22.30;60.70;;;;;;3133479;28;20075;-88
2021/09/05 01:49:56;;;;;;;10.13;9.20;;;22.30;60.80;;;;;;3133112;28;20063;-88
2021/09/05 01:51:27;;;;;;;10.32;9.32;;;22.30;60.80;;;;;;3133401;28;20049;-88
2021/09/05 01:52:59;;;;;;;10.63;9.63;;;22.20;60.80;;;;;;3133833;28;20045;-88
2021/09/05 01:54:31;;;;;;;10.13;9.23;;;22.30;60.80;;;;;;3133711;28;20081;-88
2021/09/05 01:56:02;;;;;;;10.07;9.18;;;22.20;60.80;;;;;;3123417;28;20422;-88
2021/09/05 01:57:33;;;;;;;9.98;9.07;;;22.20;60.80;;;;;;3121459;28;20042;-88
2021/09/05 01:59:06;;;;;;;10.10;9.13;;;22.20;60.90;;;;;;3130447;28;20057;-88
2021/09/05 02:00:38;;;;;;;10.55;9.55;;;22.20;60.90;;;;;;3130609;28;20045;-88
2021/09/05 02:02:10;;;;;;;10.65;9.65;;;22.20;60.90;;;;;;3133179;28;20409;-88
2021/09/05 02:03:41;;;;;;;10.00;9.10;;;22.20;60.90;;;;;;3133626;28;20413;-88
2021/09/05 02:05:12;;;;;;;10.93;9.93;;;22.20;60.90;;;;;;3130700;28;21212;-88
2021/09/05 02:06:44;;;;;;;10.23;9.32;;;22.20;60.90;;;;;;3121144;28;20530;-88
2021/09/05 02:08:16;;;;;;;9.85;8.95;;;22.20;60.90;;;;;;3120720;28;20045;-89
2021/09/05 02:09:47;;;;;;;9.90;8.90;;;22.20;60.80;;;;;;3121240;28;20050;-88
2021/09/05 02:11:19;;;;;;;9.52;8.63;;;22.20;60.90;;;;;;3120880;28;20429;-88
2021/09/05 02:12:51;;;;;;;9.52;8.60;;;22.20;60.90;;;;;;3134965;23;20083;-86
2021/09/05 02:14:24;;;;;;;10.50;9.50;;;22.20;60.80;;;;;;3115950;28;20052;-86
2021/09/05 02:15:55;;;;;;;10.02;9.13;;;22.10;60.80;;;;;;3111982;28;20054;-86
2021/09/05 02:17:26;;;;;;;10.23;9.32;;;22.20;60.80;;;;;;3109713;28;20121;-86
2021/09/05 02:18:58;;;;;;;9.75;8.77;;;22.20;60.80;;;;;;3108968;28;20752;-87
2021/09/05 02:20:30;;;;;;;10.00;9.00;;;22.20;60.80;;;;;;3110052;28;20046;-87
2021/09/05 02:22:01;;;;;;;10.20;9.20;;;22.10;60.80;;;;;;3111024;28;20050;-87
2021/09/05 02:23:33;;;;;;;9.80;8.80;;;22.20;60.80;;;;;;3111429;28;20057;-86
2021/09/05 02:25:06;;;;;;;9.95;9.00;;;22.20;61.50;;;;;;3110908;28;20482;-87
2021/09/05 02:26:38;;;;;;;10.93;9.75;;;22.10;60.80;;;;;;3111229;28;20487;-86
2021/09/05 02:28:09;;;;;;;10.18;9.18;;;22.20;60.80;;;;;;3111067;28;20053;-87
2021/09/05 02:29:42;;;;;;;10.18;9.23;;;22.20;61.50;;;;;;3111058;28;20141;-87
2021/09/05 02:31:14;;;;;;;10.27;9.38;;;22.10;60.80;;;;;;3109730;28;20057;-86
2021/09/05 02:32:46;;;;;;;10.57;9.57;;;22.10;60.80;;;;;;3110888;28;20450;-86
2021/09/05 02:34:17;;;;;;;9.48;8.68;;;22.10;60.80;;;;;;3111346;28;20061;-87
2021/09/05 02:35:49;;;;;;;10.55;9.55;;;22.20;60.80;;;;;;3110512;28;20580;-87
2021/09/05 02:37:21;;;;;;;9.77;8.88;;;22.10;60.80;;;;;;3111110;28;20108;-87
2021/09/05 02:38:52;;;;;;;9.43;8.52;;;22.10;60.80;;;;;;3110912;28;20387;-87
2021/09/05 02:40:24;;;;;;;9.82;8.93;;;22.10;60.90;;;;;;3110788;28;20046;-86
2021/09/05 02:41:56;;;;;;;9.27;8.40;;;22.10;60.90;;;;;;3111119;28;20058;-86
2021/09/05 02:43:28;;;;;;;9.75;8.85;;;22.10;60.90;;;;;;3111135;28;20049;-86
2021/09/05 02:45:01;;;;;;;9.30;8.50;;;22.10;60.80;;;;;;3110545;28;20042;-86
2021/09/05 02:46:33;;;;;;;10.02;9.13;;;22.10;60.80;;;;;;3105823;28;20388;-87
2021/09/05 02:48:05;;;;;;;9.25;8.35;;;22.10;60.90;;;;;;3098949;28;20061;-85
2021/09/05 02:49:37;;;;;;;9.90;9.00;;;22.10;60.80;;;;;;3099027;28;20480;-87
2021/09/05 02:51:07;;;;;;;9.88;8.98;;;22.10;60.80;;;;;;3098516;28;20046;-87
2021/09/05 02:52:39;;;;;;;10.30;9.20;;;22.10;60.80;;;;;;3098965;28;20125;-87
2021/09/05 02:54:11;;;;;;;10.10;9.18;;;22.10;60.80;;;;;;3099121;28;20065;-87
2021/09/05 02:55:42;;;;;;;10.13;9.23;;;22.10;60.80;;;;;;3098265;28;20057;-87
2021/09/05 02:57:13;;;;;;;9.73;8.82;;;22.10;60.80;;;;;;3099056;28;20411;-86
2021/09/05 02:58:45;;;;;;;9.88;8.98;;;22.10;60.80;;;;;;3098594;28;20580;-86
2021/09/05 03:00:17;;;;;;;9.90;8.90;;;22.10;60.80;;;;;;3097547;28;20100;-87
2021/09/05 03:01:49;;;;;;;9.32;8.48;;;22.00;60.70;;;;;;3107068;28;20053;-87
2021/09/05 03:03:21;;;;;;;9.38;8.48;;;22.00;60.70;;;;;;3110862;28;20049;-87
2021/09/05 03:04:52;;;;;;;9.05;8.25;;;22.10;60.80;;;;;;3110422;28;20499;-88
2021/09/05 03:06:23;;;;;;;9.55;8.65;;;22.00;60.70;;;;;;3110769;28;20052;-86
2021/09/05 03:07:54;;;;;;;9.52;8.63;;;22.00;60.70;;;;;;3111022;28;20454;-87
2021/09/05 03:09:26;;;;;;;9.43;8.63;;;22.10;60.70;;;;;;3111223;28;20196;-87
2021/09/05 03:10:57;;;;;;;9.68;8.77;;;22.10;61.40;;;;;;3110391;28;20100;-87
2021/09/05 03:12:28;;;;;;;9.55;8.65;;;22.10;60.70;;;;;;3110750;28;20041;-86
2021/09/05 03:14:00;;;;;;;9.00;8.20;;;22.10;60.70;;;;;;3111063;28;20041;-87
2021/09/05 03:15:33;;;;;;;9.50;8.60;;;22.00;60.70;;;;;;3109876;28;20053;-87
2021/09/05 03:17:05;;;;;;;9.52;8.70;;;22.00;60.70;;;;;;3110937;28;20076;-86
2021/09/05 03:18:37;;;;;;;10.07;9.10;;;22.00;60.70;;;;;;3110695;28;20115;-87
2021/09/05 03:20:09;;;;;;;9.35;8.45;;;22.00;60.70;;;;;;3110724;28;20050;-87
2021/09/05 03:21:41;;;;;;;9.63;8.73;;;22.00;60.70;;;;;;3110947;28;20053;-87
2021/09/05 03:23:13;;;;;;;9.15;8.35;;;22.00;60.70;;;;;;3110633;28;20108;-88
2021/09/05 03:24:44;;;;;;;8.48;7.75;;;22.10;60.70;;;;;;3110891;28;20053;-87
2021/09/05 03:26:16;;;;;;;9.35;8.55;;;22.00;60.60;;;;;;3110437;28;20076;-87
2021/09/05 03:27:48;;;;;;;9.70;8.80;;;22.00;60.60;;;;;;3110644;28;20050;-87
2021/09/05 03:29:19;;;;;;;9.30;8.50;;;22.00;61.30;;;;;;3110528;28;20487;-87
2021/09/05 03:30:52;;;;;;;9.00;8.20;;;22.00;60.60;;;;;;3117102;28;20045;-86
2021/09/05 03:32:23;;;;;;;8.90;8.10;;;22.00;60.60;;;;;;3122796;28;20050;-86
2021/09/05 03:33:55;;;;;;;8.88;8.07;;;22.00;60.60;;;;;;3123345;28;20569;-85
2021/09/05 03:35:27;;;;;;;9.90;8.80;;;22.00;60.70;;;;;;3122586;28;20399;-87
2021/09/05 03:36:58;;;;;;;9.50;8.60;;;22.00;60.60;;;;;;3123245;28;20049;-86
2021/09/05 03:38:30;;;;;;;8.32;7.60;;;22.00;60.60;;;;;;3122985;28;20052;-87
2021/09/05 03:40:02;;;;;;;8.63;7.82;;;22.00;60.60;;;;;;3122312;28;20048;-87
2021/09/05 03:41:33;;;;;;;8.75;7.95;;;22.00;60.60;;;;;;3122745;28;20049;-87
2021/09/05 03:43:05;;;;;;;9.40;8.50;;;22.00;60.60;;;;;;3122920;28;20064;-87
2021/09/05 03:44:37;;;;;;;8.77;7.97;;;21.90;60.60;;;;;;3123177;28;20049;-87
2021/09/05 03:46:10;;;;;;;9.15;8.25;;;22.00;60.60;;;;;;3121520;28;20056;-87
2021/09/05 03:47:42;;;;;;;9.00;8.20;;;22.00;60.60;;;;;;3122870;28;20463;-86
2021/09/05 03:49:13;;;;;;;8.98;8.18;;;22.00;60.50;;;;;;3122720;28;20053;-87
2021/09/05 03:50:45;;;;;;;8.50;7.70;;;22.00;60.50;;;;;;3122323;28;20120;-86
2021/09/05 03:52:16;;;;;;;9.07;8.27;;;22.00;60.50;;;;;;3122897;28;20053;-87
2021/09/05 03:53:48;;;;;;;9.57;8.70;;;22.00;60.50;;;;;;3122869;28;20402;-86
2021/09/05 03:55:19;;;;;;;9.25;8.35;;;21.90;60.50;;;;;;3122492;28;20057;-86
2021/09/05 03:56:51;;;;;;;9.38;8.48;;;21.90;60.60;;;;;;3122914;28;20478;-87
2021/09/05 03:58:23;;;;;;;9.00;8.20;;;21.90;60.50;;;;;;3122995;28;20049;-87
2021/09/05 03:59:54;;;;;;;8.95;8.15;;;22.00;60.40;;;;;;3122675;28;20411;-86
2021/09/05 04:01:29;;;;;;;8.95;8.15;;;22.00;60.30;;;;;;3122600;28;20107;-87
2021/09/05 04:03:00;;;;;;;8.93;8.13;;;22.10;60.10;;;;;;3132685;28;20496;-86
2021/09/05 04:04:32;;;;;;;8.70;7.90;;;22.20;59.80;;;;;;3123087;28;20069;-87
2021/09/05 04:06:04;;;;;;;8.60;7.82;;;22.40;59.60;;;;;;3122536;28;20068;-87
2021/09/05 04:07:40;;;;;;;8.10;7.40;;;22.50;59.30;;;;;;3123133;28;20060;-87
2021/09/05 04:09:17;;;;;;;8.95;8.15;;;22.60;58.90;;;;;;3122700;28;20045;-86
2021/09/05 04:10:48;;;;;;;8.38;7.68;;;22.80;58.60;;;;;;3122021;28;20505;-86
2021/09/05 04:12:20;;;;;;;8.50;7.70;;;22.90;58.30;;;;;;3122305;28;20079;-87
2021/09/05 04:13:52;;;;;;;8.00;7.30;;;23.00;58.00;;;;;;3122559;28;20049;-86
2021/09/05 04:15:23;;;;;;;8.30;7.60;;;23.10;57.70;;;;;;3121142;28;20294;-87
2021/09/05 04:16:56;;;;;;;8.25;7.40;;;23.20;57.50;;;;;;3121862;28;20053;-86
2021/09/05 04:18:28;;;;;;;7.90;7.30;;;23.30;57.30;;;;;;3122156;28;20087;-87
2021/09/05 04:20:00;;;;;;;7.88;7.18;;;23.40;57.00;;;;;;3121617;28;20053;-86
2021/09/05 04:21:32;;;;;;;7.93;7.22;;;23.50;56.80;;;;;;3122049;28;20165;-86
2021/09/05 04:23:03;;;;;;;7.63;6.93;;;23.50;56.60;;;;;;3122276;28;20049;-87
2021/09/05 04:24:35;;;;;;;7.68;6.97;;;23.60;56.60;;;;;;3122541;28;20046;-87
2021/09/05 04:26:07;;;;;;;8.10;7.40;;;23.60;56.50;;;;;;3121520;28;20465;-87
2021/09/05 04:27:38;;;;;;;7.50;6.80;;;23.70;56.30;;;;;;3122191;28;20209;-86
2021/09/05 04:29:10;;;;;;;7.10;6.50;;;23.80;56.20;;;;;;3121926;28;20056;-86
2021/09/05 04:30:41;;;;;;;7.90;7.25;;;23.80;56.10;;;;;;3120762;28;20075;-87
2021/09/05 04:32:14;;;;;;;7.38;6.70;;;23.90;56.00;;;;;;3121743;28;20042;-87
2021/09/05 04:33:46;;;;;;;7.88;7.07;;;23.90;55.90;;;;;;3122158;28;20049;-87
2021/09/05 04:35:17;;;;;;;7.85;7.15;;;24.00;55.90;;;;;;3121691;28;20049;-86
2021/09/05 04:36:49;;;;;;;7.63;6.93;;;24.00;55.70;;;;;;3121836;28;20049;-86
2021/09/05 04:38:20;;;;;;;7.97;7.28;;;24.10;55.60;;;;;;3121680;28;20060;-87
2021/09/05 04:39:51;;;;;;;8.13;7.32;;;24.10;55.50;;;;;;3121917;28;20045;-87
2021/09/05 04:41:23;;;;;;;7.32;6.72;;;24.10;55.50;;;;;;3121557;28;20041;-87
2021/09/05 04:42:55;;;;;;;7.63;6.93;;;24.10;55.40;;;;;;3121440;28;20050;-87
2021/09/05 04:44:26;;;;;;;7.57;6.88;;;24.20;56.10;;;;;;3121803;28;20088;-86
2021/09/05 04:45:58;;;;;;;7.50;6.90;;;24.20;55.30;;;;;;3120282;28;20514;-87
2021/09/05 04:47:31;;;;;;;7.40;6.75;;;24.30;55.30;;;;;;3122010;28;20053;-87
2021/09/05 04:49:02;;;;;;;7.63;7.00;;;24.30;55.30;;;;;;3121539;28;20053;-86
2021/09/05 04:50:33;;;;;;;7.25;6.65;;;24.30;55.20;;;;;;3121296;28;20052;-87
2021/09/05 04:52:06;;;;;;;7.95;6.90;;;24.30;55.30;;;;;;3121647;28;20458;-87
2021/09/05 04:53:38;;;;;;;7.50;6.90;;;24.30;55.10;;;;;;3122183;28;20483;-86
2021/09/05 04:55:10;;;;;;;7.18;6.57;;;24.30;55.10;;;;;;3121346;28;20049;-87
2021/09/05 04:56:41;;;;;;;7.18;6.57;;;24.30;55.10;;;;;;3121916;28;20057;-86
2021/09/05 04:58:13;;;;;;;7.60;6.90;;;24.30;55.10;;;;;;3121635;28;20053;-86
2021/09/05 04:59:44;;;;;;;7.50;6.80;;;24.30;55.10;;;;;;3121861;28;20632;-87
2021/09/05 05:01:15;;;;;;;7.35;6.75;;;24.30;55.10;;;;;;3120253;28;20330;-87
2021/09/05 05:02:48;;;;;;;7.22;6.53;;;24.30;55.10;;;;;;3121528;28;20491;-86
2021/09/05 05:04:20;;;;;;;7.07;6.47;;;24.30;55.20;;;;;;3109849;28;20108;-87
2021/09/05 05:05:52;;;;;;;7.20;6.60;;;24.30;55.50;;;;;;3108801;28;20054;-87
2021/09/05 05:07:24;;;;;;;6.65;6.05;;;24.20;55.50;;;;;;3109304;28;20069;-87
2021/09/05 05:08:55;;;;;;;7.28;6.68;;;24.20;55.50;;;;;;3109159;28;20058;-87
2021/09/05 05:10:27;;;;;;;7.22;6.63;;;24.20;55.60;;;;;;3109103;28;20430;-87
2021/09/05 05:11:59;;;;;;;7.10;6.50;;;24.10;55.60;;;;;;3109249;28;20057;-86
2021/09/05 05:13:30;;;;;;;7.32;6.72;;;24.10;55.70;;;;;;3109147;28;20112;-87
2021/09/05 05:15:02;;;;;;;7.25;6.65;;;24.00;55.90;;;;;;3108842;28;20053;-87
2021/09/05 05:16:34;;;;;;;7.35;6.65;;;24.00;56.00;;;;;;3120367;28;20045;-86
2021/09/05 05:18:07;;;;;;;6.72;6.13;;;24.00;56.20;;;;;;3121191;28;20239;-87
2021/09/05 05:19:39;;;;;;;7.30;6.70;;;23.90;56.30;;;;;;3121377;28;20049;-87
2021/09/05 05:21:11;;;;;;;7.35;6.75;;;23.80;56.40;;;;;;3121204;28;20057;-87
2021/09/05 05:22:43;;;;;;;6.97;6.38;;;23.80;56.50;;;;;;3121684;28;20057;-87
2021/09/05 05:24:14;;;;;;;6.75;6.15;;;23.70;56.70;;;;;;3121720;28;20407;-86
2021/09/05 05:25:46;;;;;;;7.50;6.85;;;23.70;56.70;;;;;;3121073;28;20052;-86
2021/09/05 05:27:18;;;;;;;6.75;6.15;;;23.70;56.70;;;;;;3121873;28;20483;-86
2021/09/05 05:28:49;;;;;;;6.78;6.18;;;23.60;56.80;;;;;;3121544;28;20411;-87
2021/09/05 05:30:20;;;;;;;6.82;6.22;;;23.60;57.00;;;;;;3120102;28;20045;-87
2021/09/05 05:31:53;;;;;;;6.88;6.28;;;23.60;56.90;;;;;;3121189;28;20522;-87
2021/09/05 05:33:26;;;;;;;6.90;6.30;;;23.60;56.90;;;;;;3121722;28;20443;-87
2021/09/05 05:34:57;;;;;;;6.88;6.28;;;23.60;57.00;;;;;;3121205;28;20114;-86
2021/09/05 05:36:29;;;;;;;6.90;6.30;;;23.50;57.10;;;;;;3121566;28;20099;-86
2021/09/05 05:38:01;;;;;;;7.00;6.45;;;23.50;57.20;;;;;;3121645;28;20116;-86
2021/09/05 05:39:33;;;;;;;6.80;6.20;;;23.50;57.20;;;;;;3121408;28;20482;-87
2021/09/05 05:41:04;;;;;;;6.53;5.93;;;23.50;57.20;;;;;;3120926;28;20049;-87
2021/09/05 05:42:36;;;;;;;6.95;6.35;;;23.50;57.20;;;;;;3121573;28;20540;-87
2021/09/05 05:44:08;;;;;;;6.65;6.05;;;23.50;57.10;;;;;;3121251;28;20053;-87
2021/09/05 05:45:39;;;;;;;6.82;6.22;;;23.50;57.00;;;;;;3120612;28;20046;-87
2021/09/05 05:47:11;;;;;;;6.78;6.18;;;23.60;57.10;;;;;;3121471;28;20053;-88
2021/09/05 05:48:44;;;;;;;6.72;6.13;;;23.60;57.10;;;;;;3120904;28;20045;-87
2021/09/05 05:50:16;;;;;;;6.75;6.15;;;23.60;57.00;;;;;;3120286;28;20041;-87
2021/09/05 05:51:48;;;;;;;7.03;6.43;;;23.60;57.00;;;;;;3121596;28;20046;-87
2021/09/05 05:53:20;;;;;;;6.53;5.93;;;23.60;57.00;;;;;;3121337;28;20045;-87
2021/09/05 05:54:52;;;;;;;6.72;6.13;;;23.70;57.00;;;;;;3121985;28;20053;-87
2021/09/05 05:56:23;;;;;;;6.55;6.05;;;23.70;56.70;;;;;;3123732;28;20115;-87
2021/09/05 05:57:55;;;;;;;6.53;5.93;;;23.80;56.70;;;;;;3123529;28;20057;-87
2021/09/05 05:59:30;;;;;;;6.50;5.93;;;23.90;56.60;;;;;;3123572;28;20056;-88
2021/09/05 06:01:01;;;;;;;6.32;5.78;;;23.90;56.40;;;;;;3123264;28;20145;-88
2021/09/05 06:02:33;;;;;;;5.60;5.10;;;23.90;56.30;;;;;;3124286;28;20045;-87
2021/09/05 06:04:06;;;;;;;5.85;5.03;;;24.00;56.30;;;;;;3124334;28;20046;-87
2021/09/05 06:05:38;;;;;;;5.72;4.50;;;24.00;56.20;;;;;;3123428;28;20045;-86
2021/09/05 06:07:10;;;;;;;5.00;4.50;;;24.00;56.40;;;;;;3123953;28;20119;-86
2021/09/05 06:08:42;;;;;;;6.35;4.00;;;24.00;56.30;;;;;;3123848;28;20596;-87
2021/09/05 06:10:13;;;;;;;4.07;3.67;;;24.10;56.10;;;;;;3123592;28;20061;-86
2021/09/05 06:11:45;;;;;;;7.28;3.90;;;24.10;56.00;;;;;;3123787;28;20100;-87
2021/09/05 06:13:17;;;;;;;4.70;3.85;;;24.10;56.20;;;;;;3123926;28;20049;-86
2021/09/05 06:14:49;;;;;;;6.07;3.80;;;24.10;56.30;;;;;;3124106;28;20057;-87
2021/09/05 06:16:20;;;;;;;5.93;3.85;;;24.10;56.40;;;;;;3121026;28;20041;-86
2021/09/05 06:17:51;;;;;;;3.97;3.58;;;24.00;56.80;;;;;;3123039;28;20049;-86
2021/09/05 06:19:24;;;;;;;5.00;3.72;;;24.00;56.80;;;;;;3123886;28;20059;-86
2021/09/05 06:20:56;;;;;;;4.35;3.88;;;24.00;56.80;;;;;;3123554;28;20726;-86
2021/09/05 06:22:28;;;;;;;6.57;3.58;;;24.00;56.80;;;;;;3123386;28;20042;-86
2021/09/05 06:24:00;;;;;;;4.20;3.80;;;24.00;56.70;;;;;;3123769;28;20049;-87
2021/09/05 06:25:32;;;;;;;4.15;3.78;;;24.00;56.70;;;;;;3123461;28;20524;-86
2021/09/05 06:27:07;;;;;;;5.03;3.67;;;24.00;56.70;;;;;;3123128;28;20461;-87
2021/09/05 06:28:39;;;;;;;5.10;3.72;;;24.00;56.60;;;;;;3123102;28;20422;-87
2021/09/05 06:30:13;;;;;;;3.90;3.60;;;24.00;56.60;;;;;;3121879;28;20111;-87
2021/09/05 06:31:54;;;;;;;5.78;3.65;;;24.00;56.70;;;;;;3111700;28;20057;-87
2021/09/05 06:33:28;;;;;;;4.07;3.67;;;24.00;56.70;;;;;;3116480;28;20053;-87
2021/09/05 06:35:05;;;;;;;5.75;3.83;;;24.00;56.70;;;;;;3122476;28;20059;-86
2021/09/05 06:36:37;;;;;;;4.82;3.65;;;24.00;56.80;;;;;;3117674;28;20157;-86
2021/09/05 06:38:12;;;;;;;7.00;3.55;;;24.00;56.60;;;;;;3121963;28;20675;-86
2021/09/05 06:39:44;;;;;;;4.13;3.63;;;24.00;56.70;;;;;;3123397;28;20053;-86
2021/09/05 06:41:17;;;;;;;4.28;3.75;;;24.00;56.80;;;;;;3122517;28;20567;-86
2021/09/05 06:42:52;;;;;;;4.03;3.55;;;24.00;56.80;;;;;;3123253;28;20053;-86
2021/09/05 06:44:23;;;;;;;5.55;3.60;;;24.00;56.60;;;;;;3123485;28;20045;-87
2021/09/05 06:45:58;;;;;;;4.18;3.78;;;24.00;56.70;;;;;;3122512;28;20722;-86
2021/09/05 06:47:32;;;;;;;3.88;3.58;;;24.00;56.70;;;;;;3123634;28;20045;-86
2021/09/05 06:49:09;;;;;;;4.75;3.70;;;24.00;56.80;;;;;;3123251;28;20046;-86
2021/09/05 06:50:42;;;;;;;5.05;3.90;;;24.00;56.80;;;;;;3123213;28;20418;-86
2021/09/05 06:52:14;;;;;;;4.68;3.80;;;24.00;56.80;;;;;;3123644;28;20041;-87
2021/09/05 06:53:46;;;;;;;4.67;3.50;;;24.00;56.80;;;;;;3123895;28;20045;-87
2021/09/05 06:55:19;;;;;;;4.15;3.75;;;24.00;56.80;;;;;;3122952;28;20045;-86
2021/09/05 06:56:51;;;;;;;3.92;3.63;;;24.00;56.90;;;;;;3123357;28;20556;-86
2021/09/05 06:58:23;;;;;;;4.72;3.90;;;24.00;56.80;;;;;;3122864;28;20072;-86
2021/09/05 06:59:55;;;;;;;3.50;3.20;;;23.90;56.80;;;;;;3122451;28;20053;-86
2021/09/05 07:03:17;;;;;;;6.05;3.50;;;24.00;56.70;;;;;;3120459;28;20494;-88
2021/09/05 07:04:49;;;;;;;4.53;3.85;;;24.00;57.00;;;;;;3128809;28;20052;-90
2021/09/05 07:06:22;;;;;;;5.50;3.67;;;24.00;57.10;;;;;;3134194;28;20049;-87
2021/09/05 07:07:53;;;;;;;6.07;3.83;;;24.00;57.00;;;;;;3135176;28;20106;-86
2021/09/05 07:09:25;;;;;;;3.55;3.25;;;24.00;57.10;;;;;;3135864;28;20049;-86
2021/09/05 07:10:57;;;;;;;3.78;3.47;;;23.90;56.90;;;;;;3135249;28;20049;-86
2021/09/05 07:12:28;;;;;;;9.63;3.60;;;24.00;56.80;;;;;;3135685;28;20517;-85
2021/09/05 07:14:00;;;;;;;4.55;3.03;;;23.90;56.70;;;;;;3135939;28;20053;-86
2021/09/05 07:15:34;;;;;;;5.38;3.25;;;24.00;56.60;;;;;;3134675;28;20049;-85
2021/09/05 07:17:06;;;;;;;4.50;3.05;;;24.00;56.70;;;;;;3111026;28;20526;-85
2021/09/05 07:18:38;;;;;;;7.40;3.03;;;24.00;56.80;;;;;;3111057;28;20050;-86
2021/09/05 07:20:11;;;;;;;7.03;3.22;;;23.90;57.00;;;;;;3111495;28;20104;-85
2021/09/05 07:21:44;;;;;;;6.05;3.35;;;23.90;57.20;;;;;;3111606;28;20123;-87
2021/09/05 07:23:16;;;;;;;6.80;3.00;;;23.90;57.00;;;;;;3111305;28;20050;-85
2021/09/05 07:24:47;;;;;;;13.38;2.95;;;24.00;57.10;;;;;;3111612;28;20076;-85
2021/09/05 07:26:19;;;;;;;11.65;3.10;;;24.00;57.00;;;;;;3110959;28;20046;-84
2021/09/05 07:27:51;;;;;;;5.95;3.20;;;24.10;57.00;;;;;;3111754;28;20495;-84
2021/09/05 07:29:22;;;;;;;9.02;3.15;;;24.10;56.90;;;;;;3111138;28;20061;-84
2021/09/05 07:30:54;;;;;;;4.57;2.70;;;24.10;57.00;;;;;;3110603;28;20446;-86
2021/09/05 07:32:26;;;;;;;8.20;3.05;;;24.10;57.20;;;;;;3123371;28;20045;-85
2021/09/05 07:33:57;;;;;;;7.13;3.10;;;24.10;57.50;;;;;;3124021;28;20056;-86
2021/09/05 07:35:29;;;;;;;7.38;3.13;;;24.10;57.50;;;;;;3123249;28;20494;-84
2021/09/05 07:37:02;;;;;;;10.02;3.30;;;24.10;57.60;;;;;;3123066;28;20060;-85
2021/09/05 07:38:34;;;;;;;6.45;2.83;;;24.20;57.40;;;;;;3123453;28;20057;-85
2021/09/05 07:40:07;;;;;;;5.80;3.10;;;24.10;57.50;;;;;;3123483;28;20057;-87
2021/09/05 07:41:38;;;;;;;5.05;2.75;;;24.10;57.70;;;;;;3123826;28;20414;-85
2021/09/05 07:43:10;;;;;;;9.38;3.05;;;24.10;57.70;;;;;;3123618;28;20092;-86
2021/09/05 07:44:42;;;;;;;8.93;3.10;;;24.10;57.80;;;;;;3124071;28;20060;-84
2021/09/05 07:46:14;;;;;;;6.95;2.75;;;24.10;58.00;;;;;;3122351;28;20445;-84
2021/09/05 07:47:45;;;;;;;4.55;2.88;;;24.10;58.00;;;;;;3124067;28;20057;-84
2021/09/05 07:49:17;;;;;;;7.10;3.30;;;24.10;58.10;;;;;;3123588;28;20575;-85
2021/09/05 07:50:49;;;;;;;4.93;2.95;;;24.10;58.20;;;;;;3123503;28;20096;-85
2021/09/05 07:52:22;;;;;;;5.85;2.67;;;24.10;58.10;;;;;;3123584;28;20057;-85
2021/09/05 07:53:54;;;;;;;3.10;2.60;;;24.00;58.20;;;;;;3123724;28;20053;-85
2021/09/05 07:55:26;;;;;;;8.50;3.05;;;24.00;58.20;;;;;;3123482;28;20041;-85
2021/09/05 07:56:58;;;;;;;5.50;2.90;;;24.00;58.20;;;;;;3124070;28;20049;-85
2021/09/05 07:58:29;;;;;;;6.65;2.88;;;24.00;58.40;;;;;;3123477;28;20057;-85